sensor_id;sensor_type;location;lat;lon;timestamp;P1;durP1;ratioP1;P2;durP2;ratioP2
12597;SDS011;6364;53.590;9.956;2024-03-06T00:01:51;29.55;;;15.63;;
12597;SDS011;6364;53.590;9.956;2024-03-06T00:04:17;24.48;;;13.88;;
12597;SDS011;6364;53.590;9.956;2024-03-06T00:06:42;23.83;;;14.15;;
12597;SDS011;6364;53.590;9.956;2024-03-06T00:09:07;29.60;;;15.20;;
12597;SDS011;6364;53.590;9.956;2024-03-06T00:11:33;23.38;;;13.25;;
12597;SDS011;6364;53.590;9.956;2024-03-06T00:14:00;24.33;;;13.75;;
12597;SDS011;6364;53.590;9.956;2024-03-06T00:16:27;27.60;;;13.45;;
12597;SDS011;6364;53.590;9.956;2024-03-06T00:18:52;23.75;;;13.88;;
12597;SDS011;6364;53.590;9.956;2024-03-06T00:21:17;28.75;;;13.95;;
12597;SDS011;6364;53.590;9.956;2024-03-06T00:23:43;25.25;;;12.85;;
12597;SDS011;6364;53.590;9.956;2024-03-06T00:26:11;22.17;;;12.77;;
12597;SDS011;6364;53.590;9.956;2024-03-06T00:28:38;21.23;;;12.23;;
12597;SDS011;6364;53.590;9.956;2024-03-06T00:31:04;21.90;;;12.45;;
12597;SDS011;6364;53.590;9.956;2024-03-06T00:33:30;17.88;;;11.63;;
12597;SDS011;6364;53.590;9.956;2024-03-06T00:35:55;22.35;;;12.73;;
12597;SDS011;6364;53.590;9.956;2024-03-06T00:38:21;22.75;;;11.35;;
12597;SDS011;6364;53.590;9.956;2024-03-06T00:40:46;19.55;;;12.32;;
12597;SDS011;6364;53.590;9.956;2024-03-06T00:43:12;20.25;;;11.00;;
12597;SDS011;6364;53.590;9.956;2024-03-06T00:45:37;19.35;;;10.90;;
12597;SDS011;6364;53.590;9.956;2024-03-06T00:48:03;17.48;;;11.20;;
12597;SDS011;6364;53.590;9.956;2024-03-06T00:50:28;21.15;;;11.40;;
12597;SDS011;6364;53.590;9.956;2024-03-06T00:52:54;19.45;;;10.95;;
12597;SDS011;6364;53.590;9.956;2024-03-06T00:55:19;17.42;;;11.05;;
12597;SDS011;6364;53.590;9.956;2024-03-06T00:57:44;16.83;;;11.00;;
12597;SDS011;6364;53.590;9.956;2024-03-06T01:00:10;16.27;;;10.63;;
12597;SDS011;6364;53.590;9.956;2024-03-06T01:02:39;19.48;;;11.43;;
12597;SDS011;6364;53.590;9.956;2024-03-06T01:05:05;16.88;;;10.95;;
12597;SDS011;6364;53.590;9.956;2024-03-06T01:07:31;21.00;;;10.85;;
12597;SDS011;6364;53.590;9.956;2024-03-06T01:09:57;18.85;;;11.23;;
12597;SDS011;6364;53.590;9.956;2024-03-06T01:12:25;17.90;;;11.50;;
12597;SDS011;6364;53.590;9.956;2024-03-06T01:14:51;20.38;;;11.80;;
12597;SDS011;6364;53.590;9.956;2024-03-06T01:17:16;18.67;;;11.50;;
12597;SDS011;6364;53.590;9.956;2024-03-06T01:19:42;19.02;;;11.38;;
12597;SDS011;6364;53.590;9.956;2024-03-06T01:22:08;16.08;;;11.05;;
12597;SDS011;6364;53.590;9.956;2024-03-06T01:24:34;17.42;;;11.18;;
12597;SDS011;6364;53.590;9.956;2024-03-06T01:26:59;16.60;;;10.90;;
12597;SDS011;6364;53.590;9.956;2024-03-06T01:29:27;18.52;;;11.07;;
12597;SDS011;6364;53.590;9.956;2024-03-06T01:31:53;19.02;;;11.73;;
12597;SDS011;6364;53.590;9.956;2024-03-06T01:34:18;20.52;;;11.40;;
12597;SDS011;6364;53.590;9.956;2024-03-06T01:36:44;18.30;;;11.05;;
12597;SDS011;6364;53.590;9.956;2024-03-06T01:39:09;19.00;;;11.13;;
12597;SDS011;6364;53.590;9.956;2024-03-06T01:41:35;21.40;;;11.65;;
12597;SDS011;6364;53.590;9.956;2024-03-06T01:44:01;22.55;;;11.52;;
12597;SDS011;6364;53.590;9.956;2024-03-06T01:46:26;17.40;;;11.10;;
12597;SDS011;6364;53.590;9.956;2024-03-06T01:48:52;21.88;;;10.80;;
12597;SDS011;6364;53.590;9.956;2024-03-06T01:51:17;22.52;;;11.82;;
12597;SDS011;6364;53.590;9.956;2024-03-06T01:53:42;18.70;;;11.07;;
12597;SDS011;6364;53.590;9.956;2024-03-06T01:56:08;17.40;;;10.45;;
12597;SDS011;6364;53.590;9.956;2024-03-06T01:58:36;20.55;;;10.55;;
12597;SDS011;6364;53.590;9.956;2024-03-06T02:01:03;22.88;;;11.77;;
12597;SDS011;6364;53.590;9.956;2024-03-06T02:03:31;24.60;;;11.80;;
12597;SDS011;6364;53.590;9.956;2024-03-06T02:05:56;20.45;;;11.05;;
12597;SDS011;6364;53.590;9.956;2024-03-06T02:08:23;22.98;;;11.07;;
12597;SDS011;6364;53.590;9.956;2024-03-06T02:10:49;24.35;;;12.15;;
12597;SDS011;6364;53.590;9.956;2024-03-06T02:13:15;20.13;;;11.60;;
12597;SDS011;6364;53.590;9.956;2024-03-06T02:15:40;18.20;;;12.00;;
12597;SDS011;6364;53.590;9.956;2024-03-06T02:18:06;24.52;;;11.10;;
12597;SDS011;6364;53.590;9.956;2024-03-06T02:20:32;20.65;;;11.63;;
12597;SDS011;6364;53.590;9.956;2024-03-06T02:22:59;20.70;;;11.18;;
12597;SDS011;6364;53.590;9.956;2024-03-06T02:25:24;18.83;;;10.82;;
12597;SDS011;6364;53.590;9.956;2024-03-06T02:27:50;17.75;;;10.63;;
12597;SDS011;6364;53.590;9.956;2024-03-06T02:30:18;20.80;;;11.65;;
12597;SDS011;6364;53.590;9.956;2024-03-06T02:32:44;20.63;;;11.23;;
12597;SDS011;6364;53.590;9.956;2024-03-06T02:35:10;20.80;;;11.82;;
12597;SDS011;6364;53.590;9.956;2024-03-06T02:37:35;19.10;;;11.38;;
12597;SDS011;6364;53.590;9.956;2024-03-06T02:40:00;18.08;;;11.15;;
12597;SDS011;6364;53.590;9.956;2024-03-06T02:42:27;20.02;;;11.20;;
12597;SDS011;6364;53.590;9.956;2024-03-06T02:44:53;23.25;;;10.77;;
12597;SDS011;6364;53.590;9.956;2024-03-06T02:47:18;18.40;;;10.80;;
12597;SDS011;6364;53.590;9.956;2024-03-06T02:49:44;19.27;;;10.82;;
12597;SDS011;6364;53.590;9.956;2024-03-06T02:52:10;17.00;;;10.20;;
12597;SDS011;6364;53.590;9.956;2024-03-06T02:54:35;16.95;;;10.43;;
12597;SDS011;6364;53.590;9.956;2024-03-06T02:57:00;15.25;;;9.38;;
12597;SDS011;6364;53.590;9.956;2024-03-06T02:59:26;13.90;;;9.38;;
12597;SDS011;6364;53.590;9.956;2024-03-06T03:01:51;17.33;;;10.18;;
12597;SDS011;6364;53.590;9.956;2024-03-06T03:04:17;15.52;;;9.55;;
12597;SDS011;6364;53.590;9.956;2024-03-06T03:06:43;18.20;;;10.02;;
12597;SDS011;6364;53.590;9.956;2024-03-06T03:09:08;16.23;;;9.25;;
12597;SDS011;6364;53.590;9.956;2024-03-06T03:11:36;20.80;;;9.65;;
12597;SDS011;6364;53.590;9.956;2024-03-06T03:14:02;16.67;;;8.90;;
12597;SDS011;6364;53.590;9.956;2024-03-06T03:16:28;16.85;;;9.68;;
12597;SDS011;6364;53.590;9.956;2024-03-06T03:18:55;18.25;;;9.45;;
12597;SDS011;6364;53.590;9.956;2024-03-06T03:21:20;17.17;;;9.27;;
12597;SDS011;6364;53.590;9.956;2024-03-06T03:23:46;18.30;;;9.73;;
12597;SDS011;6364;53.590;9.956;2024-03-06T03:26:12;16.60;;;9.85;;
12597;SDS011;6364;53.590;9.956;2024-03-06T03:28:38;16.42;;;10.10;;
12597;SDS011;6364;53.590;9.956;2024-03-06T03:31:05;15.88;;;9.45;;
12597;SDS011;6364;53.590;9.956;2024-03-06T03:33:31;14.35;;;9.65;;
12597;SDS011;6364;53.590;9.956;2024-03-06T03:35:57;18.27;;;10.18;;
12597;SDS011;6364;53.590;9.956;2024-03-06T03:38:22;17.30;;;10.00;;
12597;SDS011;6364;53.590;9.956;2024-03-06T03:40:47;16.92;;;10.07;;
12597;SDS011;6364;53.590;9.956;2024-03-06T03:43:13;15.27;;;9.65;;
12597;SDS011;6364;53.590;9.956;2024-03-06T03:45:38;17.25;;;9.95;;
12597;SDS011;6364;53.590;9.956;2024-03-06T03:48:04;18.63;;;10.32;;
12597;SDS011;6364;53.590;9.956;2024-03-06T03:50:30;20.67;;;10.57;;
12597;SDS011;6364;53.590;9.956;2024-03-06T03:52:56;20.30;;;9.93;;
12597;SDS011;6364;53.590;9.956;2024-03-06T03:55:23;19.60;;;10.00;;
12597;SDS011;6364;53.590;9.956;2024-03-06T03:57:49;16.13;;;9.52;;
12597;SDS011;6364;53.590;9.956;2024-03-06T04:00:15;17.52;;;9.50;;
12597;SDS011;6364;53.590;9.956;2024-03-06T04:02:41;21.00;;;10.73;;
12597;SDS011;6364;53.590;9.956;2024-03-06T04:05:07;15.13;;;9.93;;
12597;SDS011;6364;53.590;9.956;2024-03-06T04:07:33;18.42;;;9.10;;
12597;SDS011;6364;53.590;9.956;2024-03-06T04:10:01;18.42;;;10.15;;
12597;SDS011;6364;53.590;9.956;2024-03-06T04:12:27;20.08;;;9.90;;
12597;SDS011;6364;53.590;9.956;2024-03-06T04:14:53;19.38;;;10.07;;
12597;SDS011;6364;53.590;9.956;2024-03-06T04:17:18;17.55;;;10.02;;
12597;SDS011;6364;53.590;9.956;2024-03-06T04:19:44;13.57;;;9.43;;
12597;SDS011;6364;53.590;9.956;2024-03-06T04:22:10;19.35;;;9.70;;
12597;SDS011;6364;53.590;9.956;2024-03-06T04:24:35;16.95;;;9.93;;
12597;SDS011;6364;53.590;9.956;2024-03-06T04:27:00;18.17;;;9.98;;
12597;SDS011;6364;53.590;9.956;2024-03-06T04:29:26;22.30;;;10.35;;
12597;SDS011;6364;53.590;9.956;2024-03-06T04:31:51;21.08;;;11.05;;
12597;SDS011;6364;53.590;9.956;2024-03-06T04:34:17;15.57;;;9.85;;
12597;SDS011;6364;53.590;9.956;2024-03-06T04:36:42;18.48;;;9.63;;
12597;SDS011;6364;53.590;9.956;2024-03-06T04:39:07;17.05;;;10.60;;
12597;SDS011;6364;53.590;9.956;2024-03-06T04:41:33;17.02;;;10.27;;
12597;SDS011;6364;53.590;9.956;2024-03-06T04:43:59;16.90;;;10.75;;
12597;SDS011;6364;53.590;9.956;2024-03-06T04:46:25;17.83;;;10.65;;
12597;SDS011;6364;53.590;9.956;2024-03-06T04:48:51;15.63;;;9.95;;
12597;SDS011;6364;53.590;9.956;2024-03-06T04:51:16;18.52;;;10.40;;
12597;SDS011;6364;53.590;9.956;2024-03-06T04:53:44;19.98;;;10.50;;
12597;SDS011;6364;53.590;9.956;2024-03-06T04:56:10;16.85;;;9.57;;
12597;SDS011;6364;53.590;9.956;2024-03-06T04:58:35;15.13;;;10.13;;
12597;SDS011;6364;53.590;9.956;2024-03-06T05:01:01;22.15;;;10.98;;
12597;SDS011;6364;53.590;9.956;2024-03-06T05:03:26;23.88;;;9.98;;
12597;SDS011;6364;53.590;9.956;2024-03-06T05:05:51;16.85;;;10.38;;
12597;SDS011;6364;53.590;9.956;2024-03-06T05:08:17;16.83;;;9.80;;
12597;SDS011;6364;53.590;9.956;2024-03-06T05:10:42;17.83;;;10.55;;
12597;SDS011;6364;53.590;9.956;2024-03-06T05:13:07;20.33;;;10.43;;
12597;SDS011;6364;53.590;9.956;2024-03-06T05:15:33;21.52;;;11.02;;
12597;SDS011;6364;53.590;9.956;2024-03-06T05:17:59;17.45;;;11.05;;
12597;SDS011;6364;53.590;9.956;2024-03-06T05:20:25;17.80;;;9.95;;
12597;SDS011;6364;53.590;9.956;2024-03-06T05:22:51;18.75;;;10.50;;
12597;SDS011;6364;53.590;9.956;2024-03-06T05:25:16;20.23;;;11.20;;
12597;SDS011;6364;53.590;9.956;2024-03-06T05:27:41;20.92;;;11.20;;
12597;SDS011;6364;53.590;9.956;2024-03-06T05:30:07;18.77;;;10.85;;
12597;SDS011;6364;53.590;9.956;2024-03-06T05:32:33;17.60;;;10.98;;
12597;SDS011;6364;53.590;9.956;2024-03-06T05:34:59;16.25;;;9.90;;
12597;SDS011;6364;53.590;9.956;2024-03-06T05:37:24;22.08;;;11.13;;
12597;SDS011;6364;53.590;9.956;2024-03-06T05:39:50;16.45;;;10.77;;
12597;SDS011;6364;53.590;9.956;2024-03-06T05:42:15;19.88;;;11.18;;
12597;SDS011;6364;53.590;9.956;2024-03-06T05:44:41;17.85;;;11.32;;
12597;SDS011;6364;53.590;9.956;2024-03-06T05:47:06;22.23;;;11.02;;
12597;SDS011;6364;53.590;9.956;2024-03-06T05:49:32;20.33;;;11.40;;
12597;SDS011;6364;53.590;9.956;2024-03-06T05:51:57;20.20;;;11.32;;
12597;SDS011;6364;53.590;9.956;2024-03-06T05:54:23;19.58;;;12.00;;
12597;SDS011;6364;53.590;9.956;2024-03-06T05:56:49;18.13;;;11.27;;
12597;SDS011;6364;53.590;9.956;2024-03-06T05:59:16;27.38;;;12.18;;
12597;SDS011;6364;53.590;9.956;2024-03-06T06:01:42;19.85;;;11.80;;
12597;SDS011;6364;53.590;9.956;2024-03-06T06:04:08;23.35;;;12.57;;
12597;SDS011;6364;53.590;9.956;2024-03-06T06:06:36;19.80;;;12.50;;
12597;SDS011;6364;53.590;9.956;2024-03-06T06:09:02;21.20;;;12.60;;
12597;SDS011;6364;53.590;9.956;2024-03-06T06:11:31;20.83;;;12.30;;
12597;SDS011;6364;53.590;9.956;2024-03-06T06:13:58;21.80;;;13.13;;
12597;SDS011;6364;53.590;9.956;2024-03-06T06:16:23;26.80;;;12.95;;
12597;SDS011;6364;53.590;9.956;2024-03-06T06:18:49;25.67;;;12.43;;
12597;SDS011;6364;53.590;9.956;2024-03-06T06:21:14;24.65;;;13.77;;
12597;SDS011;6364;53.590;9.956;2024-03-06T06:23:41;22.80;;;13.82;;
12597;SDS011;6364;53.590;9.956;2024-03-06T06:26:06;21.38;;;13.98;;
12597;SDS011;6364;53.590;9.956;2024-03-06T06:28:32;23.88;;;12.43;;
12597;SDS011;6364;53.590;9.956;2024-03-06T06:30:57;24.60;;;13.63;;
12597;SDS011;6364;53.590;9.956;2024-03-06T06:33:25;25.02;;;13.98;;
12597;SDS011;6364;53.590;9.956;2024-03-06T06:35:51;21.52;;;12.98;;
12597;SDS011;6364;53.590;9.956;2024-03-06T06:38:16;21.52;;;13.80;;
12597;SDS011;6364;53.590;9.956;2024-03-06T06:40:42;26.65;;;13.45;;
12597;SDS011;6364;53.590;9.956;2024-03-06T06:43:07;24.75;;;14.05;;
12597;SDS011;6364;53.590;9.956;2024-03-06T06:45:32;24.15;;;13.75;;
12597;SDS011;6364;53.590;9.956;2024-03-06T06:47:58;23.40;;;13.80;;
12597;SDS011;6364;53.590;9.956;2024-03-06T06:50:23;23.45;;;13.95;;
12597;SDS011;6364;53.590;9.956;2024-03-06T06:52:51;28.13;;;14.50;;
12597;SDS011;6364;53.590;9.956;2024-03-06T06:55:16;21.42;;;14.02;;
12597;SDS011;6364;53.590;9.956;2024-03-06T06:57:42;22.20;;;13.88;;
12597;SDS011;6364;53.590;9.956;2024-03-06T07:00:07;26.20;;;14.02;;
12597;SDS011;6364;53.590;9.956;2024-03-06T07:02:36;26.58;;;14.40;;
12597;SDS011;6364;53.590;9.956;2024-03-06T07:05:06;19.85;;;13.65;;
12597;SDS011;6364;53.590;9.956;2024-03-06T07:07:32;28.05;;;14.45;;
12597;SDS011;6364;53.590;9.956;2024-03-06T07:09:57;25.25;;;14.60;;
12597;SDS011;6364;53.590;9.956;2024-03-06T07:12:23;26.98;;;14.02;;
12597;SDS011;6364;53.590;9.956;2024-03-06T07:14:49;21.23;;;13.73;;
12597;SDS011;6364;53.590;9.956;2024-03-06T07:17:14;27.60;;;15.35;;
12597;SDS011;6364;53.590;9.956;2024-03-06T07:19:39;24.10;;;14.32;;
12597;SDS011;6364;53.590;9.956;2024-03-06T07:22:05;27.35;;;14.20;;
12597;SDS011;6364;53.590;9.956;2024-03-06T07:24:31;20.90;;;13.00;;
12597;SDS011;6364;53.590;9.956;2024-03-06T07:26:56;20.33;;;12.70;;
12597;SDS011;6364;53.590;9.956;2024-03-06T07:29:22;19.40;;;13.02;;
12597;SDS011;6364;53.590;9.956;2024-03-06T07:31:47;18.58;;;12.13;;
12597;SDS011;6364;53.590;9.956;2024-03-06T07:34:13;19.65;;;12.10;;
12597;SDS011;6364;53.590;9.956;2024-03-06T07:36:39;20.02;;;11.88;;
12597;SDS011;6364;53.590;9.956;2024-03-06T07:39:05;17.95;;;11.35;;
12597;SDS011;6364;53.590;9.956;2024-03-06T07:41:30;19.30;;;11.20;;
12597;SDS011;6364;53.590;9.956;2024-03-06T07:43:57;15.50;;;10.50;;
12597;SDS011;6364;53.590;9.956;2024-03-06T07:46:24;14.38;;;9.95;;
12597;SDS011;6364;53.590;9.956;2024-03-06T07:48:49;15.13;;;9.63;;
12597;SDS011;6364;53.590;9.956;2024-03-06T07:51:16;14.73;;;9.63;;
12597;SDS011;6364;53.590;9.956;2024-03-06T07:53:41;16.08;;;9.90;;
12597;SDS011;6364;53.590;9.956;2024-03-06T07:56:09;12.93;;;9.15;;
12597;SDS011;6364;53.590;9.956;2024-03-06T07:58:36;14.25;;;9.30;;
12597;SDS011;6364;53.590;9.956;2024-03-06T08:01:02;18.77;;;8.73;;
12597;SDS011;6364;53.590;9.956;2024-03-06T08:03:27;13.07;;;8.25;;
12597;SDS011;6364;53.590;9.956;2024-03-06T08:05:53;12.77;;;8.48;;
12597;SDS011;6364;53.590;9.956;2024-03-06T08:08:18;14.77;;;9.05;;
12597;SDS011;6364;53.590;9.956;2024-03-06T08:10:44;12.07;;;8.75;;
12597;SDS011;6364;53.590;9.956;2024-03-06T08:13:13;13.07;;;8.68;;
12597;SDS011;6364;53.590;9.956;2024-03-06T08:15:38;13.30;;;8.35;;
12597;SDS011;6364;53.590;9.956;2024-03-06T08:18:05;11.98;;;8.50;;
12597;SDS011;6364;53.590;9.956;2024-03-06T08:20:30;14.75;;;8.93;;
12597;SDS011;6364;53.590;9.956;2024-03-06T08:22:56;14.30;;;8.73;;
12597;SDS011;6364;53.590;9.956;2024-03-06T08:25:21;14.93;;;8.95;;
12597;SDS011;6364;53.590;9.956;2024-03-06T08:27:48;20.70;;;9.35;;
12597;SDS011;6364;53.590;9.956;2024-03-06T08:30:13;15.45;;;8.43;;
12597;SDS011;6364;53.590;9.956;2024-03-06T08:32:39;24.83;;;8.73;;
12597;SDS011;6364;53.590;9.956;2024-03-06T08:37:36;14.50;;;8.15;;
12597;SDS011;6364;53.590;9.956;2024-03-06T08:40:01;11.75;;;7.93;;
12597;SDS011;6364;53.590;9.956;2024-03-06T08:42:27;13.38;;;7.13;;
12597;SDS011;6364;53.590;9.956;2024-03-06T08:44:53;10.48;;;7.53;;
12597;SDS011;6364;53.590;9.956;2024-03-06T08:47:18;17.20;;;7.60;;
12597;SDS011;6364;53.590;9.956;2024-03-06T08:49:44;10.15;;;7.00;;
12597;SDS011;6364;53.590;9.956;2024-03-06T08:52:09;13.05;;;7.72;;
12597;SDS011;6364;53.590;9.956;2024-03-06T08:54:35;12.05;;;7.15;;
12597;SDS011;6364;53.590;9.956;2024-03-06T08:57:01;10.55;;;7.32;;
12597;SDS011;6364;53.590;9.956;2024-03-06T08:59:28;15.05;;;7.63;;
12597;SDS011;6364;53.590;9.956;2024-03-06T09:01:56;13.23;;;8.45;;
12597;SDS011;6364;53.590;9.956;2024-03-06T09:04:21;8.77;;;6.72;;
12597;SDS011;6364;53.590;9.956;2024-03-06T09:06:47;11.65;;;6.22;;
12597;SDS011;6364;53.590;9.956;2024-03-06T09:09:14;11.52;;;7.07;;
12597;SDS011;6364;53.590;9.956;2024-03-06T09:11:43;9.20;;;6.95;;
12597;SDS011;6364;53.590;9.956;2024-03-06T09:14:08;12.07;;;6.93;;
12597;SDS011;6364;53.590;9.956;2024-03-06T09:16:34;10.95;;;6.30;;
12597;SDS011;6364;53.590;9.956;2024-03-06T09:19:00;10.13;;;6.25;;
12597;SDS011;6364;53.590;9.956;2024-03-06T09:21:26;8.73;;;6.25;;
12597;SDS011;6364;53.590;9.956;2024-03-06T09:23:51;9.73;;;6.03;;
12597;SDS011;6364;53.590;9.956;2024-03-06T09:26:17;10.60;;;6.68;;
12597;SDS011;6364;53.590;9.956;2024-03-06T09:28:42;9.93;;;6.47;;
12597;SDS011;6364;53.590;9.956;2024-03-06T09:31:08;12.10;;;6.32;;
12597;SDS011;6364;53.590;9.956;2024-03-06T09:33:33;8.07;;;6.15;;
12597;SDS011;6364;53.590;9.956;2024-03-06T09:35:59;11.65;;;6.80;;
12597;SDS011;6364;53.590;9.956;2024-03-06T09:38:24;9.77;;;6.95;;
12597;SDS011;6364;53.590;9.956;2024-03-06T09:40:50;11.48;;;7.25;;
12597;SDS011;6364;53.590;9.956;2024-03-06T09:43:16;11.13;;;7.38;;
12597;SDS011;6364;53.590;9.956;2024-03-06T09:45:43;12.82;;;7.22;;
12597;SDS011;6364;53.590;9.956;2024-03-06T09:48:11;9.65;;;7.25;;
12597;SDS011;6364;53.590;9.956;2024-03-06T09:50:36;12.77;;;7.47;;
12597;SDS011;6364;53.590;9.956;2024-03-06T09:53:06;13.23;;;7.68;;
12597;SDS011;6364;53.590;9.956;2024-03-06T09:55:33;10.10;;;7.10;;
12597;SDS011;6364;53.590;9.956;2024-03-06T09:58:00;12.52;;;8.15;;
12597;SDS011;6364;53.590;9.956;2024-03-06T10:00:28;11.13;;;7.80;;
12597;SDS011;6364;53.590;9.956;2024-03-06T10:02:57;10.88;;;8.27;;
12597;SDS011;6364;53.590;9.956;2024-03-06T10:05:25;12.20;;;7.70;;
12597;SDS011;6364;53.590;9.956;2024-03-06T10:07:50;14.77;;;9.15;;
12597;SDS011;6364;53.590;9.956;2024-03-06T10:10:17;12.52;;;8.63;;
12597;SDS011;6364;53.590;9.956;2024-03-06T10:12:42;13.32;;;9.18;;
12597;SDS011;6364;53.590;9.956;2024-03-06T10:15:10;12.45;;;9.80;;
12597;SDS011;6364;53.590;9.956;2024-03-06T10:17:37;12.05;;;8.52;;
12597;SDS011;6364;53.590;9.956;2024-03-06T10:20:24;14.15;;;8.85;;
12597;SDS011;6364;53.590;9.956;2024-03-06T10:22:52;12.75;;;8.95;;
12597;SDS011;6364;53.590;9.956;2024-03-06T10:25:19;14.25;;;8.90;;
12597;SDS011;6364;53.590;9.956;2024-03-06T10:27:46;13.18;;;8.95;;
12597;SDS011;6364;53.590;9.956;2024-03-06T10:30:35;13.73;;;8.85;;
12597;SDS011;6364;53.590;9.956;2024-03-06T10:33:05;13.82;;;9.23;;
12597;SDS011;6364;53.590;9.956;2024-03-06T10:35:33;11.40;;;7.90;;
12597;SDS011;6364;53.590;9.956;2024-03-06T10:38:02;11.32;;;7.93;;
12597;SDS011;6364;53.590;9.956;2024-03-06T10:40:27;14.65;;;8.75;;
12597;SDS011;6364;53.590;9.956;2024-03-06T10:42:56;13.07;;;9.18;;
12597;SDS011;6364;53.590;9.956;2024-03-06T10:45:23;12.65;;;8.80;;
12597;SDS011;6364;53.590;9.956;2024-03-06T10:47:52;12.52;;;9.40;;
12597;SDS011;6364;53.590;9.956;2024-03-06T10:50:18;14.70;;;9.98;;
12597;SDS011;6364;53.590;9.956;2024-03-06T10:52:45;15.77;;;10.32;;
12597;SDS011;6364;53.590;9.956;2024-03-06T10:55:12;14.75;;;10.13;;
12597;SDS011;6364;53.590;9.956;2024-03-06T10:57:38;13.15;;;9.63;;
12597;SDS011;6364;53.590;9.956;2024-03-06T11:00:05;13.80;;;9.45;;
12597;SDS011;6364;53.590;9.956;2024-03-06T11:02:31;13.60;;;9.65;;
12597;SDS011;6364;53.590;9.956;2024-03-06T11:04:57;15.55;;;9.65;;
12597;SDS011;6364;53.590;9.956;2024-03-06T11:07:23;13.93;;;8.90;;
12597;SDS011;6364;53.590;9.956;2024-03-06T11:09:49;12.52;;;8.95;;
12597;SDS011;6364;53.590;9.956;2024-03-06T11:15:16;11.65;;;8.75;;
12597;SDS011;6364;53.590;9.956;2024-03-06T11:17:42;13.30;;;8.55;;
12597;SDS011;6364;53.590;9.956;2024-03-06T11:20:08;11.38;;;8.98;;
12597;SDS011;6364;53.590;9.956;2024-03-06T11:28:09;13.82;;;9.50;;
12597;SDS011;6364;53.590;9.956;2024-03-06T11:30:35;12.82;;;9.38;;
12597;SDS011;6364;53.590;9.956;2024-03-06T11:33:11;12.02;;;9.32;;
12597;SDS011;6364;53.590;9.956;2024-03-06T11:35:37;14.38;;;9.45;;
12597;SDS011;6364;53.590;9.956;2024-03-06T11:38:04;14.73;;;9.43;;
12597;SDS011;6364;53.590;9.956;2024-03-06T11:40:31;13.40;;;9.52;;
12597;SDS011;6364;53.590;9.956;2024-03-06T11:42:57;12.50;;;10.00;;
12597;SDS011;6364;53.590;9.956;2024-03-06T11:45:22;13.88;;;9.48;;
12597;SDS011;6364;53.590;9.956;2024-03-06T11:47:56;16.30;;;9.68;;
12597;SDS011;6364;53.590;9.956;2024-03-06T11:50:23;17.05;;;9.95;;
12597;SDS011;6364;53.590;9.956;2024-03-06T11:52:49;15.65;;;10.43;;
12597;SDS011;6364;53.590;9.956;2024-03-06T11:55:14;16.00;;;10.85;;
12597;SDS011;6364;53.590;9.956;2024-03-06T11:57:40;15.13;;;10.23;;
12597;SDS011;6364;53.590;9.956;2024-03-06T12:00:06;16.40;;;10.35;;
12597;SDS011;6364;53.590;9.956;2024-03-06T12:02:32;13.48;;;10.25;;
12597;SDS011;6364;53.590;9.956;2024-03-06T12:05:01;14.82;;;10.30;;
12597;SDS011;6364;53.590;9.956;2024-03-06T12:07:27;16.08;;;10.32;;
12597;SDS011;6364;53.590;9.956;2024-03-06T12:09:53;12.68;;;8.90;;
12597;SDS011;6364;53.590;9.956;2024-03-06T12:12:18;13.68;;;8.88;;
12597;SDS011;6364;53.590;9.956;2024-03-06T12:14:43;11.02;;;8.02;;
12597;SDS011;6364;53.590;9.956;2024-03-06T12:17:21;11.00;;;8.30;;
12597;SDS011;6364;53.590;9.956;2024-03-06T12:19:47;10.57;;;8.95;;
12597;SDS011;6364;53.590;9.956;2024-03-06T12:22:13;14.07;;;8.82;;
12597;SDS011;6364;53.590;9.956;2024-03-06T12:24:44;12.18;;;8.45;;
12597;SDS011;6364;53.590;9.956;2024-03-06T12:27:09;18.23;;;9.38;;
12597;SDS011;6364;53.590;9.956;2024-03-06T12:29:35;13.85;;;8.55;;
12597;SDS011;6364;53.590;9.956;2024-03-06T12:32:04;11.30;;;8.88;;
12597;SDS011;6364;53.590;9.956;2024-03-06T12:34:30;12.77;;;8.80;;
12597;SDS011;6364;53.590;9.956;2024-03-06T12:36:56;14.50;;;8.98;;
12597;SDS011;6364;53.590;9.956;2024-03-06T12:39:23;10.50;;;9.02;;
12597;SDS011;6364;53.590;9.956;2024-03-06T12:41:51;11.65;;;8.85;;
12597;SDS011;6364;53.590;9.956;2024-03-06T12:44:17;11.50;;;9.40;;
12597;SDS011;6364;53.590;9.956;2024-03-06T12:46:44;14.13;;;9.27;;
12597;SDS011;6364;53.590;9.956;2024-03-06T12:49:09;12.00;;;8.95;;
12597;SDS011;6364;53.590;9.956;2024-03-06T12:51:35;11.45;;;8.63;;
12597;SDS011;6364;53.590;9.956;2024-03-06T12:54:00;12.90;;;9.50;;
12597;SDS011;6364;53.590;9.956;2024-03-06T12:56:26;12.35;;;8.95;;
12597;SDS011;6364;53.590;9.956;2024-03-06T12:58:51;14.68;;;9.63;;
12597;SDS011;6364;53.590;9.956;2024-03-06T13:01:17;14.60;;;8.65;;
12597;SDS011;6364;53.590;9.956;2024-03-06T13:03:43;10.52;;;8.48;;
12597;SDS011;6364;53.590;9.956;2024-03-06T13:06:08;14.05;;;8.52;;
12597;SDS011;6364;53.590;9.956;2024-03-06T13:08:34;11.05;;;8.80;;
12597;SDS011;6364;53.590;9.956;2024-03-06T13:10:59;11.20;;;8.25;;
12597;SDS011;6364;53.590;9.956;2024-03-06T13:13:25;13.63;;;8.65;;
12597;SDS011;6364;53.590;9.956;2024-03-06T13:15:50;13.70;;;8.90;;
12597;SDS011;6364;53.590;9.956;2024-03-06T13:18:16;16.63;;;9.43;;
12597;SDS011;6364;53.590;9.956;2024-03-06T13:20:42;13.30;;;8.27;;
12597;SDS011;6364;53.590;9.956;2024-03-06T13:23:08;12.73;;;9.07;;
12597;SDS011;6364;53.590;9.956;2024-03-06T13:25:34;11.75;;;8.63;;
12597;SDS011;6364;53.590;9.956;2024-03-06T13:28:00;13.35;;;8.60;;
12597;SDS011;6364;53.590;9.956;2024-03-06T13:30:26;12.55;;;8.30;;
12597;SDS011;6364;53.590;9.956;2024-03-06T13:32:51;15.25;;;8.05;;
12597;SDS011;6364;53.590;9.956;2024-03-06T13:35:17;12.00;;;7.95;;
12597;SDS011;6364;53.590;9.956;2024-03-06T13:37:43;15.25;;;7.65;;
12597;SDS011;6364;53.590;9.956;2024-03-06T13:40:08;12.25;;;8.07;;
12597;SDS011;6364;53.590;9.956;2024-03-06T13:42:35;13.50;;;7.88;;
12597;SDS011;6364;53.590;9.956;2024-03-06T13:45:01;14.27;;;8.23;;
12597;SDS011;6364;53.590;9.956;2024-03-06T13:47:28;13.30;;;8.48;;
12597;SDS011;6364;53.590;9.956;2024-03-06T13:49:53;12.23;;;8.20;;
12597;SDS011;6364;53.590;9.956;2024-03-06T13:52:20;13.73;;;7.90;;
12597;SDS011;6364;53.590;9.956;2024-03-06T13:54:45;10.15;;;7.70;;
12597;SDS011;6364;53.590;9.956;2024-03-06T13:57:12;9.73;;;7.70;;
12597;SDS011;6364;53.590;9.956;2024-03-06T13:59:38;15.32;;;8.70;;
12597;SDS011;6364;53.590;9.956;2024-03-06T14:02:05;16.05;;;8.00;;
12597;SDS011;6364;53.590;9.956;2024-03-06T14:04:31;11.93;;;7.88;;
12597;SDS011;6364;53.590;9.956;2024-03-06T14:06:56;12.95;;;8.68;;
12597;SDS011;6364;53.590;9.956;2024-03-06T14:09:22;14.52;;;8.30;;
12597;SDS011;6364;53.590;9.956;2024-03-06T14:11:49;13.48;;;8.32;;
12597;SDS011;6364;53.590;9.956;2024-03-06T14:14:15;10.80;;;8.02;;
12597;SDS011;6364;53.590;9.956;2024-03-06T14:16:41;14.70;;;8.45;;
12597;SDS011;6364;53.590;9.956;2024-03-06T14:19:07;13.75;;;8.60;;
12597;SDS011;6364;53.590;9.956;2024-03-06T14:21:33;13.80;;;8.60;;
12597;SDS011;6364;53.590;9.956;2024-03-06T14:23:59;10.70;;;8.27;;
12597;SDS011;6364;53.590;9.956;2024-03-06T14:26:24;16.27;;;8.40;;
12597;SDS011;6364;53.590;9.956;2024-03-06T14:28:50;12.90;;;8.35;;
12597;SDS011;6364;53.590;9.956;2024-03-06T14:31:15;13.82;;;8.60;;
12597;SDS011;6364;53.590;9.956;2024-03-06T14:33:41;13.38;;;8.25;;
12597;SDS011;6364;53.590;9.956;2024-03-06T14:36:07;13.85;;;8.55;;
12597;SDS011;6364;53.590;9.956;2024-03-06T14:38:32;13.90;;;8.57;;
12597;SDS011;6364;53.590;9.956;2024-03-06T14:40:58;15.13;;;9.30;;
12597;SDS011;6364;53.590;9.956;2024-03-06T14:43:24;11.68;;;8.07;;
12597;SDS011;6364;53.590;9.956;2024-03-06T14:45:49;15.75;;;9.10;;